map of ENFB home
ENFB - Heliport
Location
City:  Statfjord B, Norway
Name:oil platform
ICAO:ENFB

Details
Type:Heliport
Latitude:6112'23"N (61.206389)
Longitude:149'44"E (1.828889)
Elevation:465 ft (142 m)
Variation:0.35W (WMM2015v2 magnetic declination)
0.24 annual change

Time
Time Zone:UTC+1 (DST+2)
Local Time:

Weather
METAR:ENFB 041350Z AUTO 14008KT 9999NDV BKN016/// 07/03 Q1003 W///S4

Related Locations
Nearby:
Farthest:NZTB: 11398 mi / 18344 km
Terra Nova Bay [Mario Zucchelli Station], AQ

Find:

   beyond  
but within

Other Information
Maps:
NOTAMs:
Links:
Sources:

  
  • flag of Norway
  

Sectional Chart

Flight Planning
at skyvector.com

Satellite Image

Google Maps Satellite view

 

Copyright © 2004-2019 Karl L. Swartz. All rights reserved.
The Great Circle Mapper name and logo are trademarks of the Great Circle Mapper.
All other trademarks mentioned herein belong to their respective owners.
Please see credits for attibutions and further copyright information.

  Follow gcmap on Facebook Follow gcmap on Twitter GCmap on LinkedIn

hCard Microformat

Geo Microformat